Star Helena — V7KJ9 — position and weather

sailwx.info

Track history (hours):
 
Tides and Currents Weather Stations Pressure Air Temp Water Temp Dewpoint Dewpoint Depression Visibility Wind Speed Wind Dir Waves Ship Positions

Star Helena

Last reported at 2015-Aug-28 01:33 UTC. Time now 2015-Aug-28 02:18 UTC.
Position N 01°17' E 103°60'.

Length 229 m; draft 12.5 m.

Type: Cargo ship. MMSI: 538002630.

Date/timePositionNaut miles runAvg speedWind from/ knotsBaromVisibWave heightAir tempDewpointWater temp
2015-Aug-28 01:33N 01°17' E 103°60'6 5.6
2015-Aug-28 00:33N 01°13' E 103°55'5 5.2
2015-Aug-27 23:33N 01°11' E 103°50'6 6.2
2015-Aug-27 22:33N 01°08' E 103°45'134 9.6
2015-Aug-27 08:32N 02°16' E 101°49'1412.8
2015-Aug-27 07:28N 02°24' E 101°38'2412.2
2015-Aug-27 05:28N 02°37' E 101°18'2211.7
2015-Aug-27 03:33N 02°49' E 100°59'1211.5
2015-Aug-27 02:33N 02°57' E 100°50'2311.3
2015-Aug-27 00:31N 03°10' E 100°31'  
Track history (hours):
 
Tides and Currents Weather Stations Pressure Air Temp Water Temp Dewpoint Dewpoint Depression Visibility Wind Speed Wind Dir Waves Ship Positions

Star Helena

Last reported at 2015-Aug-28 01:33 UTC. Time now 2015-Aug-28 02:18 UTC.
Position N 01°17' E 103°60'.

Length 229 m; draft 12.5 m.

Type: Cargo ship. MMSI: 538002630.

Date/timePositionNaut miles runAvg speedWind from/ knotsBaromVisibWave heightAir tempDewpointWater temp
2015-Aug-28 01:33N 01°17' E 103°60'6 5.6
2015-Aug-28 00:33N 01°13' E 103°55'5 5.2
2015-Aug-27 23:33N 01°11' E 103°50'6 6.2
2015-Aug-27 22:33N 01°08' E 103°45'134 9.6
2015-Aug-27 08:32N 02°16' E 101°49'1412.8
2015-Aug-27 07:28N 02°24' E 101°38'2412.2
2015-Aug-27 05:28N 02°37' E 101°18'2211.7
2015-Aug-27 03:33N 02°49' E 100°59'1211.5
2015-Aug-27 02:33N 02°57' E 100°50'2311.3
2015-Aug-27 00:31N 03°10' E 100°31'  

Dump ship's entire track history